Time;durP1;ratioP1;P1;durP2;ratioP2;P2;SDS_P1;SDS_P2;PMS_P1;PMS_P2;Temp;Humidity;BMP_temperature;BMP_pressure;BME280_temperature;BME280_humidity;BME280_pressure;Samples;Min_cycle;Max_cycle;Signal;HPM_P1;HPM_P2
2021/06/23 00:00:25;;;;;;;37.70;33.83;;;20.60;99.90;;;;;;4989915;28;20201;-86
2021/06/23 00:03:16;;;;;;;36.03;32.33;;;20.70;99.90;;;;;;4993863;28;20234;-85
2021/06/23 00:05:45;;;;;;;37.47;33.17;;;20.60;99.90;;;;;;4995551;28;20200;-84
2021/06/23 00:08:14;;;;;;;38.27;34.30;;;20.60;99.90;;;;;;4986565;28;20227;-87
2021/06/23 00:10:43;;;;;;;38.13;34.10;;;20.60;99.90;;;;;;4987019;28;20191;-87
2021/06/23 00:13:12;;;;;;;38.07;34.10;;;20.60;99.90;;;;;;5005636;28;20272;-85
2021/06/23 00:15:41;;;;;;;35.10;31.60;;;20.60;99.90;;;;;;4996357;28;20258;-85
2021/06/23 00:18:10;;;;;;;34.53;30.97;;;20.50;99.90;;;;;;4985610;28;20212;-87
2021/06/23 00:20:41;;;;;;;33.87;30.47;;;20.40;99.90;;;;;;5008160;28;20184;-86
2021/06/23 00:23:10;;;;;;;32.53;29.20;;;20.50;99.90;;;;;;4986542;28;20206;-89
2021/06/23 00:25:38;;;;;;;31.53;28.13;;;20.50;99.90;;;;;;4958951;28;20211;-86
2021/06/23 00:28:07;;;;;;;31.83;28.67;;;20.50;99.90;;;;;;4977947;28;20211;-86
2021/06/23 00:30:36;;;;;;;33.17;29.73;;;20.50;99.90;;;;;;4979599;28;20204;-87
2021/06/23 00:33:07;;;;;;;33.13;30.00;;;20.50;99.90;;;;;;5000649;28;20343;-87
2021/06/23 00:35:39;;;;;;;33.87;30.37;;;20.50;99.90;;;;;;4984624;28;20212;-85
2021/06/23 00:38:09;;;;;;;34.47;30.97;;;20.40;99.90;;;;;;4983580;28;20208;-86
2021/06/23 00:40:39;;;;;;;32.93;29.43;;;20.40;99.90;;;;;;4977747;28;20212;-86
2021/06/23 00:43:09;;;;;;;34.07;30.67;;;20.30;99.90;;;;;;4975747;28;20208;-86
2021/06/23 00:45:38;;;;;;;36.70;32.80;;;20.30;99.90;;;;;;4980458;28;20259;-85
2021/06/23 00:48:09;;;;;;;34.20;30.60;;;20.30;99.90;;;;;;4975007;28;20310;-86
2021/06/23 00:50:40;;;;;;;33.27;30.07;;;20.40;99.90;;;;;;4966351;28;20204;-85
2021/06/23 00:53:11;;;;;;;32.63;29.47;;;20.40;99.90;;;;;;5004271;28;20573;-85
2021/06/23 00:55:41;;;;;;;31.43;28.23;;;20.40;99.90;;;;;;4990561;28;20220;-85
2021/06/23 00:58:10;;;;;;;33.73;30.20;;;20.40;99.90;;;;;;4993375;28;20266;-85
2021/06/23 01:00:39;;;;;;;35.97;32.20;;;20.40;99.90;;;;;;5000625;28;20187;-87
2021/06/23 01:03:10;;;;;;;33.73;30.47;;;20.40;99.90;;;;;;5002143;28;20219;-86
2021/06/23 01:05:39;;;;;;;32.77;29.37;;;20.40;99.90;;;;;;4996176;28;20181;-85
2021/06/23 01:08:11;;;;;;;33.43;30.17;;;20.40;99.90;;;;;;4995496;28;20328;-87
2021/06/23 01:10:39;;;;;;;34.03;30.53;;;20.40;99.90;;;;;;4998729;28;20203;-85
2021/06/23 01:13:36;;;;;;;31.77;28.60;;;20.40;99.90;;;;;;4979556;28;20242;-86
2021/06/23 01:16:08;;;;;;;29.80;26.90;;;20.40;99.90;;;;;;4979233;28;20420;-85
2021/06/23 01:18:38;;;;;;;33.37;30.20;;;20.40;99.90;;;;;;4975503;28;20731;-84
2021/06/23 01:21:08;;;;;;;32.43;29.23;;;20.40;99.90;;;;;;4964134;28;20216;-87
2021/06/23 01:23:40;;;;;;;31.83;28.80;;;20.40;99.90;;;;;;4987142;28;20209;-86
2021/06/23 01:26:08;;;;;;;33.07;28.50;;;20.40;99.90;;;;;;4998077;28;20192;-87
2021/06/23 01:28:38;;;;;;;32.70;29.50;;;20.30;99.90;;;;;;4989402;28;20254;-86
2021/06/23 01:31:07;;;;;;;32.07;28.77;;;20.30;99.90;;;;;;4986270;28;20195;-85
2021/06/23 01:33:38;;;;;;;33.37;29.97;;;20.20;99.90;;;;;;4980962;28;20223;-84
2021/06/23 01:36:09;;;;;;;35.17;31.77;;;20.20;99.90;;;;;;4993139;28;20204;-85
2021/06/23 01:38:39;;;;;;;34.67;31.30;;;20.20;99.90;;;;;;4974349;28;20568;-84
2021/06/23 01:41:07;;;;;;;34.40;30.93;;;20.20;99.90;;;;;;4979339;28;20208;-85
2021/06/23 01:43:36;;;;;;;36.43;32.80;;;20.20;99.90;;;;;;4975165;28;20224;-85
2021/06/23 01:46:05;;;;;;;37.53;33.63;;;20.20;99.90;;;;;;4960385;28;20661;-85
2021/06/23 01:48:34;;;;;;;38.27;34.43;;;20.20;99.90;;;;;;4973822;28;20624;-86
2021/06/23 01:51:04;;;;;;;39.20;35.10;;;20.20;99.90;;;;;;4977047;28;20634;-85
2021/06/23 01:53:35;;;;;;;39.20;35.00;;;20.20;99.90;;;;;;4979563;28;20232;-85
2021/06/23 01:56:07;;;;;;;40.90;36.60;;;20.20;99.90;;;;;;4984469;28;20204;-85
2021/06/23 01:58:39;;;;;;;42.37;38.27;;;20.30;99.90;;;;;;4977993;28;20216;-84
2021/06/23 02:01:17;;;;;;;40.87;36.67;;;20.30;99.90;;;;;;4995900;28;20522;-85
2021/06/23 02:03:58;;;;;;;39.43;35.33;;;20.30;99.90;;;;;;4985390;28;20268;-85
2021/06/23 02:06:58;;;;;;;38.63;34.60;;;20.40;99.90;;;;;;4977452;28;20208;-85
2021/06/23 02:09:54;;;;;;;39.73;35.77;;;20.30;99.90;;;;;;4965111;28;20227;-86
2021/06/23 02:12:50;;;;;;;38.57;34.73;;;20.30;99.90;;;;;;4964151;28;20223;-85
2021/06/23 02:15:19;;;;;;;39.43;35.20;;;20.30;99.90;;;;;;4978820;28;20212;-86
2021/06/23 02:17:50;;;;;;;39.33;35.47;;;20.30;99.90;;;;;;4980634;28;20231;-85
2021/06/23 02:20:20;;;;;;;41.13;36.93;;;20.20;99.90;;;;;;4982004;28;20581;-85
2021/06/23 02:22:50;;;;;;;42.37;37.80;;;20.30;99.90;;;;;;4990098;28;20299;-86
2021/06/23 02:25:19;;;;;;;42.97;38.60;;;20.20;99.90;;;;;;4987716;28;20208;-87
2021/06/23 02:27:49;;;;;;;41.33;37.03;;;20.30;99.90;;;;;;4978238;28;20210;-86
2021/06/23 02:30:19;;;;;;;42.40;37.90;;;20.30;99.90;;;;;;4977126;28;20254;-84
2021/06/23 02:32:47;;;;;;;45.73;40.63;;;20.20;99.90;;;;;;4979109;28;20705;-84
2021/06/23 02:35:16;;;;;;;42.17;37.97;;;20.20;99.90;;;;;;4977401;28;20239;-84
2021/06/23 02:37:46;;;;;;;44.67;40.07;;;20.20;99.90;;;;;;4969849;28;20204;-89
2021/06/23 02:40:15;;;;;;;45.80;41.00;;;20.20;99.90;;;;;;4983018;28;20275;-84
2021/06/23 02:42:45;;;;;;;45.80;40.10;;;20.30;99.90;;;;;;4981732;28;21016;-85
2021/06/23 02:45:17;;;;;;;44.80;40.13;;;20.30;99.90;;;;;;4981772;28;20212;-84
2021/06/23 02:47:46;;;;;;;44.50;39.97;;;20.30;99.90;;;;;;4982176;28;20549;-86
2021/06/23 02:50:16;;;;;;;40.07;35.90;;;20.20;99.90;;;;;;4981696;28;20203;-86
2021/06/23 02:52:45;;;;;;;42.80;38.23;;;20.20;99.90;;;;;;4984915;28;20441;-85
2021/06/23 02:55:19;;;;;;;41.30;36.83;;;20.20;99.90;;;;;;4988469;28;20216;-84
2021/06/23 02:57:49;;;;;;;41.47;37.37;;;20.20;99.90;;;;;;4985875;28;20468;-84
2021/06/23 03:00:21;;;;;;;41.93;37.37;;;20.20;99.90;;;;;;4997183;28;20214;-83
2021/06/23 03:02:50;;;;;;;40.90;36.80;;;20.20;99.90;;;;;;4971305;28;20258;-84
2021/06/23 03:05:19;;;;;;;44.43;39.67;;;20.10;99.90;;;;;;4976190;28;20232;-86
2021/06/23 03:07:47;;;;;;;41.53;37.27;;;20.20;99.90;;;;;;4985682;28;20205;-84
2021/06/23 03:10:17;;;;;;;40.67;36.57;;;20.30;99.90;;;;;;4976246;28;20298;-84
2021/06/23 03:12:46;;;;;;;40.00;35.90;;;20.30;99.90;;;;;;4974451;28;20486;-84
2021/06/23 03:15:15;;;;;;;42.17;37.97;;;20.40;99.90;;;;;;4978979;28;20247;-86
2021/06/23 03:17:46;;;;;;;39.40;35.40;;;20.40;99.90;;;;;;4991791;28;20195;-82
2021/06/23 03:20:16;;;;;;;38.37;34.23;;;20.50;99.90;;;;;;4991311;28;20212;-85
2021/06/23 03:22:47;;;;;;;35.03;31.47;;;20.50;99.90;;;;;;4987619;28;20748;-84
2021/06/23 03:25:16;;;;;;;36.37;32.87;;;20.60;99.90;;;;;;4987720;28;20543;-85
2021/06/23 03:27:53;;;;;;;37.67;33.77;;;20.60;99.90;;;;;;4992387;28;20299;-84
2021/06/23 03:30:24;;;;;;;36.17;32.67;;;20.70;99.90;;;;;;5002356;28;20528;-85
2021/06/23 03:32:55;;;;;;;36.47;32.67;;;20.70;99.90;;;;;;5008494;28;20243;-84
2021/06/23 03:35:25;;;;;;;34.30;31.00;;;20.80;99.90;;;;;;5008506;28;20219;-85
2021/06/23 03:37:55;;;;;;;35.27;31.67;;;20.90;99.90;;;;;;5004501;28;20222;-85
2021/06/23 03:40:24;;;;;;;34.50;31.13;;;20.90;99.90;;;;;;5007263;28;20199;-86
2021/06/23 03:42:54;;;;;;;35.97;32.23;;;21.00;99.90;;;;;;5005343;28;20199;-87
2021/06/23 03:45:46;;;;;;;32.23;28.93;;;21.10;99.90;;;;;;4986792;28;20237;-86
2021/06/23 03:48:16;;;;;;;33.83;30.43;;;21.10;99.90;;;;;;4984133;28;20401;-86
2021/06/23 03:50:47;;;;;;;42.07;37.57;;;21.10;99.90;;;;;;4981424;28;20632;-87
2021/06/23 03:53:16;;;;;;;33.57;30.37;;;21.10;99.90;;;;;;5002924;28;20206;-86
2021/06/23 03:55:48;;;;;;;40.45;36.45;;;21.10;99.90;;;;;;5007993;28;20199;-86
2021/06/23 03:58:17;;;;;;;33.63;30.37;;;21.20;99.90;;;;;;4987072;28;20255;-86
2021/06/23 04:00:45;;;;;;;34.40;30.93;;;21.10;99.90;;;;;;4982743;28;20219;-85
2021/06/23 04:03:15;;;;;;;35.07;31.57;;;21.10;99.90;;;;;;4985554;28;20624;-86
2021/06/23 04:05:46;;;;;;;35.37;31.83;;;21.10;99.90;;;;;;4981324;28;21092;-87
2021/06/23 04:08:14;;;;;;;34.80;31.43;;;21.10;99.90;;;;;;4984191;28;20271;-85
2021/06/23 04:10:44;;;;;;;33.27;30.03;;;21.10;99.90;;;;;;4993495;28;21095;-85
2021/06/23 04:13:12;;;;;;;32.90;29.53;;;21.10;99.90;;;;;;4996303;28;20192;-85
2021/06/23 04:15:41;;;;;;;34.50;31.13;;;21.10;99.90;;;;;;4991464;28;20279;-86
2021/06/23 04:18:10;;;;;;;34.23;30.77;;;21.10;99.90;;;;;;5011691;28;20184;-85
2021/06/23 04:20:40;;;;;;;32.83;29.63;;;21.10;99.90;;;;;;4996813;28;20204;-82
2021/06/23 04:23:09;;;;;;;32.80;29.30;;;21.20;99.90;;;;;;5003215;28;20203;-86
2021/06/23 04:25:37;;;;;;;31.60;28.30;;;21.30;99.90;;;;;;5007916;28;20176;-83
2021/06/23 04:28:07;;;;;;;32.17;28.87;;;21.50;99.90;;;;;;5005258;28;20189;-84
2021/06/23 04:30:36;;;;;;;30.07;27.07;;;21.70;99.90;;;;;;4986307;28;20235;-86
2021/06/23 04:33:04;;;;;;;30.63;27.52;;;21.80;99.90;;;;;;5002315;28;20664;-83
2021/06/23 04:35:36;;;;;;;29.90;26.95;;;21.90;99.90;;;;;;5001876;28;20246;-83
2021/06/23 04:38:06;;;;;;;29.48;26.55;;;21.90;99.90;;;;;;4997350;28;20373;-88
2021/06/23 04:40:36;;;;;;;28.42;25.73;;;22.00;99.90;;;;;;4975644;28;20200;-87
2021/06/23 04:43:05;;;;;;;26.30;23.77;;;22.10;99.90;;;;;;4979659;28;20231;-86
2021/06/23 04:45:34;;;;;;;27.92;24.92;;;22.40;99.90;;;;;;4963061;28;20585;-84
2021/06/23 04:48:03;;;;;;;24.35;21.98;;;22.60;99.90;;;;;;4969639;28;20208;-84
2021/06/23 04:50:32;;;;;;;26.65;24.05;;;23.00;99.90;;;;;;4970892;28;20682;-82
2021/06/23 04:53:00;;;;;;;26.75;23.90;;;23.20;99.40;;;;;;4972152;28;20208;-83
2021/06/23 04:55:30;;;;;;;26.67;23.95;;;23.30;98.20;;;;;;4973794;28;21416;-84
2021/06/23 04:57:59;;;;;;;26.42;23.85;;;23.50;99.00;;;;;;4970172;28;20207;-83
2021/06/23 05:00:28;;;;;;;23.40;21.08;;;23.50;96.60;;;;;;4985131;28;20196;-85
2021/06/23 05:02:57;;;;;;;23.23;21.02;;;23.50;97.40;;;;;;4961755;28;20466;-84
2021/06/23 05:05:26;;;;;;;23.23;20.95;;;23.60;95.80;;;;;;4969023;28;20645;-84
2021/06/23 05:07:54;;;;;;;21.75;19.85;;;23.60;97.40;;;;;;4957546;28;20389;-84
2021/06/23 05:10:23;;;;;;;22.17;19.98;;;23.60;97.80;;;;;;4969946;28;20295;-83
2021/06/23 05:12:53;;;;;;;18.63;16.92;;;23.70;96.40;;;;;;4962635;28;20294;-84
2021/06/23 05:15:22;;;;;;;18.88;17.08;;;23.70;95.70;;;;;;4989137;28;20442;-84
2021/06/23 05:17:52;;;;;;;19.42;17.48;;;23.70;95.20;;;;;;4988783;28;20267;-85
2021/06/23 05:20:22;;;;;;;18.70;16.88;;;23.70;95.90;;;;;;4997063;28;20197;-82
2021/06/23 05:22:52;;;;;;;17.75;16.02;;;23.80;94.00;;;;;;4991002;28;20191;-84
2021/06/23 05:25:21;;;;;;;18.45;16.77;;;23.90;94.10;;;;;;4991179;28;20200;-84
2021/06/23 05:27:50;;;;;;;18.25;16.58;;;23.90;93.80;;;;;;4984797;28;20205;-83
2021/06/23 05:30:21;;;;;;;19.50;17.60;;;24.10;93.60;;;;;;4992301;28;20281;-84
2021/06/23 05:32:51;;;;;;;17.42;15.73;;;24.10;92.70;;;;;;4990570;28;20200;-86
2021/06/23 05:35:21;;;;;;;17.33;15.80;;;24.00;93.00;;;;;;4964197;28;20241;-87
2021/06/23 05:37:50;;;;;;;18.88;17.05;;;24.10;93.80;;;;;;4952973;28;20216;-86
2021/06/23 05:40:19;;;;;;;17.23;15.73;;;24.20;94.00;;;;;;4952430;28;20200;-84
2021/06/23 05:42:49;;;;;;;17.67;15.98;;;24.30;93.70;;;;;;4961340;28;20260;-86
2021/06/23 05:45:19;;;;;;;18.77;16.98;;;24.50;93.10;;;;;;4960705;28;20961;-84
2021/06/23 05:47:48;;;;;;;18.13;16.45;;;24.70;92.50;;;;;;4951557;28;20210;-84
2021/06/23 05:50:18;;;;;;;19.02;17.13;;;24.80;92.80;;;;;;4939065;28;20398;-86
2021/06/23 05:52:47;;;;;;;18.63;16.92;;;24.80;92.90;;;;;;4940050;28;20208;-84
2021/06/23 05:55:20;;;;;;;25.65;22.95;;;24.90;91.80;;;;;;4945390;28;20841;-85
2021/06/23 05:57:53;;;;;;;23.23;20.83;;;24.90;92.90;;;;;;4940768;28;20204;-85
2021/06/23 06:00:25;;;;;;;23.13;21.02;;;25.00;93.40;;;;;;4953544;28;20508;-82
2021/06/23 06:02:54;;;;;;;24.23;21.98;;;25.20;93.50;;;;;;4962274;28;20430;-82
2021/06/23 06:05:23;;;;;;;24.02;21.70;;;25.30;93.60;;;;;;4955901;28;20563;-83
2021/06/23 06:07:52;;;;;;;23.98;21.77;;;25.50;91.90;;;;;;4947411;28;20742;-82
2021/06/23 06:10:20;;;;;;;24.08;21.60;;;25.60;91.40;;;;;;4932171;28;20340;-82
2021/06/23 06:12:50;;;;;;;21.25;19.33;;;25.50;91.10;;;;;;4926792;28;20219;-81
2021/06/23 06:15:19;;;;;;;21.67;19.48;;;25.60;91.80;;;;;;4927836;28;20615;-81
2021/06/23 06:17:49;;;;;;;21.20;18.92;;;25.50;90.90;;;;;;4928812;28;20235;-82
2021/06/23 06:20:19;;;;;;;22.98;20.77;;;25.50;91.00;;;;;;4936738;28;20309;-80
2021/06/23 06:22:48;;;;;;;23.42;21.20;;;25.50;91.00;;;;;;4930624;28;20216;-80
2021/06/23 06:25:16;;;;;;;23.50;21.02;;;25.40;91.20;;;;;;4928804;28;20227;-81
2021/06/23 06:27:45;;;;;;;22.80;20.70;;;25.50;91.30;;;;;;4937458;28;20204;-79
2021/06/23 06:30:15;;;;;;;21.77;19.73;;;25.60;91.60;;;;;;4933082;28;20591;-83
2021/06/23 06:32:44;;;;;;;20.90;18.80;;;25.80;91.70;;;;;;4928820;28;20243;-80
2021/06/23 06:35:15;;;;;;;20.60;18.73;;;25.90;92.00;;;;;;4929338;28;20677;-82
2021/06/23 06:37:44;;;;;;;19.83;17.95;;;26.10;91.40;;;;;;4933747;28;20419;-81
2021/06/23 06:40:13;;;;;;;19.35;17.60;;;26.20;91.50;;;;;;4909374;28;20275;-80
2021/06/23 06:42:42;;;;;;;21.80;19.83;;;26.30;91.90;;;;;;4904177;28;20257;-82
2021/06/23 06:45:11;;;;;;;21.35;19.13;;;26.20;91.60;;;;;;4923614;28;20246;-80
2021/06/23 06:47:39;;;;;;;21.60;19.60;;;26.10;91.40;;;;;;4927764;28;20756;-82
2021/06/23 06:50:09;;;;;;;19.45;17.50;;;25.90;91.60;;;;;;4927190;28;20323;-81
2021/06/23 06:52:40;;;;;;;20.75;18.83;;;25.90;92.50;;;;;;4919931;28;20228;-81
2021/06/23 06:55:09;;;;;;;19.88;17.90;;;26.10;91.80;;;;;;4936315;28;21077;-81
2021/06/23 06:57:38;;;;;;;19.83;18.02;;;26.10;91.40;;;;;;4932331;28;20286;-82
2021/06/23 07:00:08;;;;;;;21.80;19.80;;;26.00;91.30;;;;;;4935738;28;20340;-81
2021/06/23 07:02:37;;;;;;;19.70;17.75;;;25.90;91.50;;;;;;4933103;28;20335;-83
2021/06/23 07:05:07;;;;;;;20.33;18.30;;;26.00;92.00;;;;;;4929491;28;20205;-82
2021/06/23 07:07:35;;;;;;;19.73;18.02;;;26.10;91.40;;;;;;4921644;28;20424;-80
2021/06/23 07:10:07;;;;;;;19.40;17.70;;;26.10;90.40;;;;;;4929149;28;20234;-81
2021/06/23 07:12:36;;;;;;;18.08;16.38;;;26.10;91.00;;;;;;4928365;28;21071;-81
2021/06/23 07:15:06;;;;;;;16.58;15.15;;;26.10;90.40;;;;;;4939937;28;20425;-82
2021/06/23 07:17:34;;;;;;;14.85;13.43;;;26.10;90.00;;;;;;4927583;28;20345;-83
2021/06/23 07:20:05;;;;;;;15.00;13.60;;;26.00;89.90;;;;;;4939391;28;20456;-82
2021/06/23 07:22:33;;;;;;;15.65;14.15;;;25.90;89.90;;;;;;4935477;28;20231;-84
2021/06/23 07:25:02;;;;;;;17.23;15.43;;;25.90;90.50;;;;;;4942161;28;20362;-82
2021/06/23 07:27:32;;;;;;;15.48;14.05;;;26.00;89.10;;;;;;4935088;28;20270;-82
2021/06/23 07:30:01;;;;;;;15.02;13.55;;;26.20;89.60;;;;;;4923907;28;20200;-82
2021/06/23 07:32:31;;;;;;;14.80;13.50;;;26.40;90.00;;;;;;4938174;28;20209;-83
2021/06/23 07:37:42;;;;;;;14.32;12.93;;;26.60;88.50;;;;;;4930246;28;20199;-85
2021/06/23 07:40:13;;;;;;;13.55;12.27;;;26.70;88.00;;;;;;4939262;28;21351;-82
2021/06/23 07:42:43;;;;;;;13.07;12.00;;;26.70;87.90;;;;;;4937982;28;20947;-82
2021/06/23 07:45:13;;;;;;;14.07;12.68;;;26.70;88.50;;;;;;4935930;28;20684;-82
2021/06/23 07:47:43;;;;;;;13.10;11.90;;;26.70;88.50;;;;;;4913754;28;20270;-83
2021/06/23 07:50:14;;;;;;;13.73;12.52;;;26.50;89.40;;;;;;4942130;28;20599;-84
2021/06/23 07:52:52;;;;;;;15.20;13.80;;;26.60;87.90;;;;;;4944868;28;20225;-82
2021/06/23 08:09:29;;;;;;;14.55;13.35;;;26.90;86.40;;;;;;4963581;28;20204;-82
2021/06/23 08:12:15;;;;;;;14.63;13.32;;;27.00;85.80;;;;;;4949079;28;20546;-82
2021/06/23 08:14:45;;;;;;;15.00;13.68;;;27.00;85.70;;;;;;4951679;28;20429;-82
2021/06/23 08:17:14;;;;;;;14.63;13.27;;;27.10;86.00;;;;;;4939987;28;20474;-83
2021/06/23 08:19:42;;;;;;;15.60;14.07;;;27.30;86.10;;;;;;4941382;28;20419;-82
2021/06/23 08:22:12;;;;;;;16.13;14.82;;;27.50;86.20;;;;;;4939894;28;20209;-84
2021/06/23 08:24:41;;;;;;;14.20;12.80;;;27.80;86.20;;;;;;4950674;28;20208;-83
2021/06/23 08:27:10;;;;;;;14.57;13.18;;;27.90;86.20;;;;;;4953722;28;20544;-82
2021/06/23 08:29:39;;;;;;;15.20;13.80;;;27.80;86.30;;;;;;4944650;28;20224;-84
2021/06/23 08:32:09;;;;;;;14.38;13.18;;;27.70;86.20;;;;;;4943682;28;20208;-85
2021/06/23 08:34:38;;;;;;;14.27;12.77;;;27.70;86.50;;;;;;4962410;28;20239;-83
2021/06/23 08:37:11;;;;;;;13.15;11.93;;;27.80;86.40;;;;;;4965733;28;20377;-84
2021/06/23 08:39:40;;;;;;;13.98;12.68;;;27.80;86.60;;;;;;4969201;28;20379;-83
2021/06/23 08:42:10;;;;;;;14.05;12.75;;;27.90;86.60;;;;;;4966809;28;20700;-83
2021/06/23 08:44:39;;;;;;;14.02;12.82;;;27.70;85.80;;;;;;4966692;28;20216;-83
2021/06/23 08:47:09;;;;;;;13.75;12.30;;;27.70;86.20;;;;;;4942427;28;20213;-81
2021/06/23 08:49:39;;;;;;;13.75;12.38;;;27.90;86.40;;;;;;4946280;28;20773;-84
2021/06/23 08:52:08;;;;;;;13.23;12.10;;;28.20;85.90;;;;;;4952427;28;20746;-82
2021/06/23 08:54:37;;;;;;;13.90;12.48;;;28.20;85.30;;;;;;4964954;28;20200;-81
2021/06/23 08:57:06;;;;;;;14.18;12.88;;;28.00;85.20;;;;;;4968808;28;20224;-83
2021/06/23 08:59:35;;;;;;;13.88;12.63;;;28.10;85.50;;;;;;4965830;28;20251;-83
2021/06/23 09:02:05;;;;;;;13.80;12.60;;;28.10;85.50;;;;;;4946401;28;20335;-83
2021/06/23 09:04:35;;;;;;;13.10;11.90;;;28.10;85.60;;;;;;4968661;28;20193;-82
2021/06/23 09:07:04;;;;;;;11.95;10.75;;;28.10;84.90;;;;;;4939161;28;20350;-82
2021/06/23 09:09:37;;;;;;;11.00;10.00;;;28.10;84.90;;;;;;4947089;28;20267;-84
2021/06/23 09:12:07;;;;;;;12.13;11.02;;;28.00;84.80;;;;;;4938732;28;20235;-84
2021/06/23 09:14:40;;;;;;;12.35;10.95;;;28.00;84.60;;;;;;4942733;28;20274;-83
2021/06/23 09:17:11;;;;;;;11.60;10.63;;;28.20;85.00;;;;;;4942640;28;21921;-81
2021/06/23 09:19:54;;;;;;;10.88;9.88;;;28.40;84.60;;;;;;4942422;28;20205;-81
2021/06/23 09:22:37;;;;;;;12.32;11.20;;;28.20;84.80;;;;;;4939240;28;20294;-81
2021/06/23 09:25:23;;;;;;;11.02;10.02;;;28.30;84.60;;;;;;4938576;28;20667;-82
2021/06/23 09:27:54;;;;;;;11.38;10.20;;;28.40;84.20;;;;;;4933709;28;20254;-85
2021/06/23 09:30:32;;;;;;;13.18;11.98;;;28.70;83.50;;;;;;4938705;28;20611;-83
2021/06/23 09:33:12;;;;;;;12.20;11.00;;;28.80;84.00;;;;;;4930656;28;20439;-82
2021/06/23 09:35:44;;;;;;;11.20;10.13;;;28.60;83.90;;;;;;4944101;28;21072;-82
2021/06/23 09:38:47;;;;;;;10.77;9.77;;;28.40;83.70;;;;;;4932605;28;20469;-82
2021/06/23 09:41:25;;;;;;;11.18;10.18;;;28.50;83.60;;;;;;4936246;28;20212;-82
2021/06/23 09:44:03;;;;;;;11.00;9.98;;;28.80;83.50;;;;;;4937617;28;20213;-82
2021/06/23 09:46:33;;;;;;;12.57;10.73;;;29.00;83.70;;;;;;4941246;28;20615;-82
2021/06/23 09:49:09;;;;;;;13.13;11.73;;;29.00;83.30;;;;;;4944040;28;20648;-82
2021/06/23 09:51:42;;;;;;;10.95;9.95;;;29.20;83.00;;;;;;4958183;28;20204;-81
2021/06/23 09:54:12;;;;;;;14.50;13.10;;;29.30;83.70;;;;;;4955765;28;20605;-83
2021/06/23 09:56:56;;;;;;;15.00;13.50;;;29.30;84.10;;;;;;4953115;28;20232;-84
2021/06/23 09:59:32;;;;;;;14.68;13.38;;;29.40;84.50;;;;;;4937094;28;20205;-83
2021/06/23 10:02:02;;;;;;;13.02;12.02;;;29.50;84.50;;;;;;4938066;28;20215;-81
2021/06/23 10:04:33;;;;;;;12.70;11.60;;;29.70;83.50;;;;;;4937256;28;20216;-85
2021/06/23 10:07:05;;;;;;;14.80;13.40;;;29.70;83.20;;;;;;4937471;28;20204;-80
2021/06/23 10:09:34;;;;;;;14.95;13.65;;;29.60;83.90;;;;;;4948645;28;20258;-82
2021/06/23 10:12:16;;;;;;;17.13;15.52;;;29.70;84.10;;;;;;4951991;28;20829;-82
2021/06/23 10:14:50;;;;;;;18.25;16.45;;;29.80;84.00;;;;;;4934877;28;20634;-82
2021/06/23 10:17:18;;;;;;;17.45;15.82;;;29.60;84.00;;;;;;4924280;28;20399;-81
2021/06/23 10:19:47;;;;;;;17.92;16.33;;;29.60;84.40;;;;;;4936699;28;20281;-81
2021/06/23 10:22:18;;;;;;;17.08;15.48;;;29.60;84.30;;;;;;4939421;28;20622;-81
2021/06/23 10:24:56;;;;;;;17.00;15.50;;;29.60;84.50;;;;;;4934570;28;20637;-81
2021/06/23 10:27:26;;;;;;;17.70;16.10;;;29.70;84.60;;;;;;4927188;28;20489;-80
2021/06/23 10:29:57;;;;;;;17.90;16.30;;;29.80;84.40;;;;;;4930367;28;20327;-81
2021/06/23 10:32:26;;;;;;;19.20;17.50;;;29.80;84.50;;;;;;4935048;28;20239;-79
2021/06/23 10:34:56;;;;;;;18.30;16.65;;;29.70;84.50;;;;;;4938656;28;21154;-81
2021/06/23 10:37:32;;;;;;;19.63;17.80;;;29.60;84.90;;;;;;4934522;28;20641;-80
2021/06/23 10:40:05;;;;;;;19.42;17.55;;;29.50;84.90;;;;;;4931463;28;20493;-81
2021/06/23 10:42:34;;;;;;;19.38;17.55;;;29.60;85.50;;;;;;4938917;28;20204;-81
2021/06/23 10:45:04;;;;;;;20.15;18.25;;;29.70;85.50;;;;;;4934319;28;21833;-83
2021/06/23 10:47:34;;;;;;;19.80;17.80;;;29.80;84.90;;;;;;4939120;28;20286;-81
2021/06/23 10:50:05;;;;;;;19.98;18.00;;;29.80;85.20;;;;;;4941075;28;20374;-83
2021/06/23 10:52:46;;;;;;;19.65;17.88;;;29.80;85.00;;;;;;4949493;28;20236;-83
2021/06/23 10:55:46;;;;;;;18.95;17.05;;;29.80;85.10;;;;;;4953540;28;20436;-82
2021/06/23 10:58:15;;;;;;;19.98;17.92;;;29.80;85.00;;;;;;4942495;28;20236;-82
2021/06/23 11:00:48;;;;;;;19.00;17.17;;;29.90;84.90;;;;;;4943662;28;20275;-82
2021/06/23 11:03:18;;;;;;;19.35;17.55;;;29.80;85.20;;;;;;4932161;28;20838;-83
2021/06/23 11:05:50;;;;;;;19.05;17.15;;;29.80;84.60;;;;;;4935159;28;20679;-82
2021/06/23 11:08:31;;;;;;;19.50;17.52;;;29.70;84.90;;;;;;4935992;28;20331;-80
2021/06/23 11:11:03;;;;;;;18.45;16.85;;;29.70;84.50;;;;;;4957033;28;20524;-82
2021/06/23 11:13:35;;;;;;;19.50;17.23;;;29.40;84.60;;;;;;4959692;28;20834;-80
2021/06/23 11:16:04;;;;;;;17.25;15.52;;;29.40;85.00;;;;;;4954447;28;20700;-82
2021/06/23 11:18:37;;;;;;;17.90;16.20;;;29.70;84.80;;;;;;4951217;28;20662;-81
2021/06/23 11:21:19;;;;;;;17.63;16.05;;;29.90;84.40;;;;;;4939314;28;20414;-81
2021/06/23 11:23:58;;;;;;;17.45;15.85;;;30.20;84.30;;;;;;4948126;28;20207;-82
2021/06/23 11:26:53;;;;;;;16.33;14.90;;;30.30;83.90;;;;;;4930620;28;20816;-79
2021/06/23 11:29:39;;;;;;;17.83;16.00;;;30.40;84.40;;;;;;4936237;28;20211;-80
2021/06/23 11:32:13;;;;;;;16.38;14.98;;;30.70;83.90;;;;;;4929163;28;20336;-86
2021/06/23 11:34:59;;;;;;;15.68;14.18;;;30.60;83.70;;;;;;4925816;28;20220;-83
2021/06/23 11:37:31;;;;;;;15.77;14.23;;;30.70;83.40;;;;;;4929892;28;20372;-83
2021/06/23 11:40:13;;;;;;;16.65;15.07;;;30.90;83.50;;;;;;4935573;28;20210;-84
2021/06/23 11:42:42;;;;;;;16.38;14.30;;;31.10;83.20;;;;;;4951570;28;20240;-84
2021/06/23 11:45:11;;;;;;;15.68;14.15;;;31.00;83.50;;;;;;4959810;28;20271;-85
2021/06/23 11:47:40;;;;;;;15.05;13.57;;;31.10;83.10;;;;;;4972981;28;20196;-84
2021/06/23 11:50:10;;;;;;;15.07;13.73;;;31.10;83.00;;;;;;4960463;28;20204;-84
2021/06/23 11:52:39;;;;;;;15.73;14.07;;;31.10;83.10;;;;;;4966482;28;20430;-85
2021/06/23 11:55:12;;;;;;;14.70;13.35;;;31.10;83.40;;;;;;4966900;28;20251;-83
2021/06/23 11:57:41;;;;;;;14.75;13.30;;;31.00;82.50;;;;;;4945482;28;20204;-84
2021/06/23 12:00:11;;;;;;;14.93;13.65;;;30.90;82.90;;;;;;4947373;28;20433;-84
2021/06/23 12:02:40;;;;;;;14.80;13.50;;;30.90;83.10;;;;;;4943415;28;20781;-83
2021/06/23 12:05:12;;;;;;;15.25;13.70;;;30.80;83.30;;;;;;4942962;28;20209;-84
2021/06/23 12:07:41;;;;;;;14.75;13.45;;;31.00;83.10;;;;;;4944338;28;20205;-81
2021/06/23 12:10:11;;;;;;;17.35;14.35;;;31.20;82.60;;;;;;4946299;28;20212;-83
2021/06/23 12:12:45;;;;;;;16.30;14.70;;;31.00;82.20;;;;;;4948921;28;20230;-86
2021/06/23 12:15:16;;;;;;;16.27;14.70;;;30.80;82.50;;;;;;4942791;28;20209;-84
2021/06/23 12:17:46;;;;;;;16.40;15.00;;;30.50;82.80;;;;;;4928632;28;20232;-82
2021/06/23 12:20:15;;;;;;;15.38;13.95;;;30.20;82.90;;;;;;4943287;28;20208;-83
2021/06/23 12:22:44;;;;;;;17.05;15.30;;;29.90;83.20;;;;;;4935996;28;20209;-82
2021/06/23 12:25:15;;;;;;;16.83;15.43;;;29.40;83.30;;;;;;4939590;28;20602;-82
2021/06/23 12:27:44;;;;;;;16.75;15.25;;;29.20;83.50;;;;;;4943777;28;20420;-82
2021/06/23 12:30:13;;;;;;;17.08;15.43;;;29.10;84.20;;;;;;4953535;28;20295;-83
2021/06/23 12:32:42;;;;;;;17.42;15.82;;;28.90;84.70;;;;;;4931487;28;20506;-83
2021/06/23 12:35:11;;;;;;;18.17;16.27;;;28.90;84.40;;;;;;4960988;28;20242;-83
2021/06/23 12:37:40;;;;;;;17.58;15.98;;;29.00;84.80;;;;;;4972350;28;20475;-83
2021/06/23 12:40:10;;;;;;;17.60;15.88;;;29.40;84.80;;;;;;4946281;28;20232;-83
2021/06/23 12:42:40;;;;;;;17.48;15.82;;;29.90;84.20;;;;;;4937830;28;20489;-83
2021/06/23 12:45:10;;;;;;;16.73;15.32;;;30.10;84.30;;;;;;4948752;28;20622;-84
2021/06/23 12:47:39;;;;;;;17.10;15.55;;;30.50;83.80;;;;;;4944797;28;21340;-84
2021/06/23 12:50:11;;;;;;;17.58;15.88;;;30.40;83.90;;;;;;4947425;28;20290;-81
2021/06/23 12:52:39;;;;;;;16.75;15.05;;;30.30;83.80;;;;;;4934163;28;20381;-82
2021/06/23 12:55:09;;;;;;;16.95;15.27;;;30.10;83.90;;;;;;4943865;28;20233;-83
2021/06/23 12:57:40;;;;;;;17.75;16.20;;;29.90;84.10;;;;;;4941390;28;20216;-83
2021/06/23 13:00:11;;;;;;;17.95;16.20;;;29.50;84.50;;;;;;4955272;28;20462;-84
2021/06/23 13:02:40;;;;;;;17.88;16.20;;;29.10;84.50;;;;;;4948027;28;20236;-83
2021/06/23 13:05:10;;;;;;;17.92;16.30;;;29.00;85.20;;;;;;4941827;28;20447;-83